sensor_id;sensor_type;location;lat;lon;timestamp;temperature;humidity
57719;DHT22;43561;50.090;18.522;2022-07-29T00:05:11;17.20;95.20
57719;DHT22;43561;50.090;18.522;2022-07-29T00:15:14;17.10;96.60
57719;DHT22;43561;50.090;18.522;2022-07-29T00:25:16;17.00;97.50
57719;DHT22;43561;50.090;18.522;2022-07-29T00:35:17;16.80;98.40
57719;DHT22;43561;50.090;18.522;2022-07-29T00:45:19;16.70;99.30
57719;DHT22;43561;50.090;18.522;2022-07-29T00:55:22;16.70;99.90
57719;DHT22;43561;50.090;18.522;2022-07-29T01:05:26;16.80;99.90
57719;DHT22;43561;50.090;18.522;2022-07-29T01:15:54;16.80;99.90
57719;DHT22;43561;50.090;18.522;2022-07-29T01:46:39;16.20;99.90
57719;DHT22;43561;50.090;18.522;2022-07-29T01:56:43;16.40;99.90
57719;DHT22;43561;50.090;18.522;2022-07-29T02:06:50;16.60;99.90
57719;DHT22;43561;50.090;18.522;2022-07-29T02:16:54;16.60;99.90
57719;DHT22;43561;50.090;18.522;2022-07-29T02:26:58;16.50;99.90
57719;DHT22;43561;50.090;18.522;2022-07-29T02:37:02;16.40;99.90
57719;DHT22;43561;50.090;18.522;2022-07-29T02:47:32;16.30;99.10
57719;DHT22;43561;50.090;18.522;2022-07-29T02:58:02;16.30;98.70
57719;DHT22;43561;50.090;18.522;2022-07-29T03:08:06;16.20;98.30
57719;DHT22;43561;50.090;18.522;2022-07-29T03:18:09;16.20;98.00
57719;DHT22;43561;50.090;18.522;2022-07-29T03:28:12;16.20;97.60
57719;DHT22;43561;50.090;18.522;2022-07-29T03:38:16;16.20;97.20
57719;DHT22;43561;50.090;18.522;2022-07-29T03:48:23;16.10;96.70
57719;DHT22;43561;50.090;18.522;2022-07-29T03:58:27;16.30;96.30
57719;DHT22;43561;50.090;18.522;2022-07-29T04:08:29;16.50;95.80
57719;DHT22;43561;50.090;18.522;2022-07-29T04:18:31;16.50;95.70
57719;DHT22;43561;50.090;18.522;2022-07-29T04:28:33;16.80;95.00
57719;DHT22;43561;50.090;18.522;2022-07-29T04:38:35;17.40;93.80
57719;DHT22;43561;50.090;18.522;2022-07-29T04:48:37;18.00;92.50
57719;DHT22;43561;50.090;18.522;2022-07-29T04:58:39;19.40;89.80
57719;DHT22;43561;50.090;18.522;2022-07-29T05:08:43;19.30;87.00
57719;DHT22;43561;50.090;18.522;2022-07-29T05:18:45;19.90;85.00
57719;DHT22;43561;50.090;18.522;2022-07-29T05:28:47;18.80;87.10
57719;DHT22;43561;50.090;18.522;2022-07-29T05:38:49;20.00;85.60
57719;DHT22;43561;50.090;18.522;2022-07-29T05:48:51;21.00;81.70
57719;DHT22;43561;50.090;18.522;2022-07-29T05:58:53;21.40;78.60
57719;DHT22;43561;50.090;18.522;2022-07-29T06:08:55;21.20;80.40
57719;DHT22;43561;50.090;18.522;2022-07-29T06:18:57;22.90;75.30
57719;DHT22;43561;50.090;18.522;2022-07-29T06:29:00;21.90;76.70
57719;DHT22;43561;50.090;18.522;2022-07-29T06:39:04;21.00;79.10
57719;DHT22;43561;50.090;18.522;2022-07-29T06:49:08;21.70;78.40
57719;DHT22;43561;50.090;18.522;2022-07-29T06:59:11;21.10;81.20
57719;DHT22;43561;50.090;18.522;2022-07-29T07:09:14;21.80;79.90
57719;DHT22;43561;50.090;18.522;2022-07-29T07:19:16;21.80;79.90
57719;DHT22;43561;50.090;18.522;2022-07-29T07:29:18;21.70;81.10
57719;DHT22;43561;50.090;18.522;2022-07-29T07:39:20;22.30;80.00
57719;DHT22;43561;50.090;18.522;2022-07-29T07:49:21;23.40;77.40
57719;DHT22;43561;50.090;18.522;2022-07-29T07:59:24;23.80;75.50
57719;DHT22;43561;50.090;18.522;2022-07-29T08:09:27;24.50;74.70
57719;DHT22;43561;50.090;18.522;2022-07-29T08:19:31;23.80;75.60
57719;DHT22;43561;50.090;18.522;2022-07-29T08:29:33;24.10;75.50
57719;DHT22;43561;50.090;18.522;2022-07-29T08:39:39;24.20;74.80
57719;DHT22;43561;50.090;18.522;2022-07-29T08:49:41;26.00;71.70
57719;DHT22;43561;50.090;18.522;2022-07-29T08:59:45;25.20;71.00
57719;DHT22;43561;50.090;18.522;2022-07-29T09:09:48;26.60;69.20
57719;DHT22;43561;50.090;18.522;2022-07-29T09:19:50;26.40;68.40
57719;DHT22;43561;50.090;18.522;2022-07-29T09:30:14;26.20;68.00
57719;DHT22;43561;50.090;18.522;2022-07-29T09:40:27;26.30;68.40
57719;DHT22;43561;50.090;18.522;2022-07-29T09:50:40;26.20;68.70
57719;DHT22;43561;50.090;18.522;2022-07-29T10:00:42;26.60;66.80
57719;DHT22;43561;50.090;18.522;2022-07-29T10:10:45;26.80;68.60
57719;DHT22;43561;50.090;18.522;2022-07-29T10:20:47;27.80;66.10
57719;DHT22;43561;50.090;18.522;2022-07-29T10:30:50;27.00;66.00
57719;DHT22;43561;50.090;18.522;2022-07-29T10:41:18;27.00;66.10
57719;DHT22;43561;50.090;18.522;2022-07-29T10:51:25;27.20;65.00
57719;DHT22;43561;50.090;18.522;2022-07-29T11:01:30;27.40;65.70
57719;DHT22;43561;50.090;18.522;2022-07-29T11:11:40;27.30;65.60
57719;DHT22;43561;50.090;18.522;2022-07-29T11:21:45;27.80;63.70
57719;DHT22;43561;50.090;18.522;2022-07-29T11:32:09;27.50;62.50
57719;DHT22;43561;50.090;18.522;2022-07-29T11:52:44;27.50;63.60
57719;DHT22;43561;50.090;18.522;2022-07-29T12:02:51;27.00;63.80
57719;DHT22;43561;50.090;18.522;2022-07-29T12:12:53;27.20;63.60
57719;DHT22;43561;50.090;18.522;2022-07-29T12:22:56;27.20;63.70
57719;DHT22;43561;50.090;18.522;2022-07-29T12:32:58;27.20;63.70
57719;DHT22;43561;50.090;18.522;2022-07-29T12:53:14;27.00;64.70
57719;DHT22;43561;50.090;18.522;2022-07-29T13:03:18;26.80;63.40
57719;DHT22;43561;50.090;18.522;2022-07-29T13:13:20;27.00;63.40
57719;DHT22;43561;50.090;18.522;2022-07-29T13:23:23;27.00;62.20
57719;DHT22;43561;50.090;18.522;2022-07-29T13:33:25;27.00;63.10
57719;DHT22;43561;50.090;18.522;2022-07-29T13:43:27;27.20;61.80
57719;DHT22;43561;50.090;18.522;2022-07-29T13:53:29;27.00;60.60
57719;DHT22;43561;50.090;18.522;2022-07-29T14:03:31;27.10;61.20
57719;DHT22;43561;50.090;18.522;2022-07-29T14:13:32;27.20;60.70
57719;DHT22;43561;50.090;18.522;2022-07-29T14:23:35;26.90;60.20
57719;DHT22;43561;50.090;18.522;2022-07-29T14:33:42;26.90;61.00
57719;DHT22;43561;50.090;18.522;2022-07-29T14:43:47;27.30;61.50
57719;DHT22;43561;50.090;18.522;2022-07-29T14:53:49;27.30;60.20
57719;DHT22;43561;50.090;18.522;2022-07-29T15:03:51;27.70;60.00
57719;DHT22;43561;50.090;18.522;2022-07-29T15:14:00;27.40;59.50
57719;DHT22;43561;50.090;18.522;2022-07-29T15:24:03;27.30;60.20
57719;DHT22;43561;50.090;18.522;2022-07-29T15:34:07;27.20;60.20
57719;DHT22;43561;50.090;18.522;2022-07-29T15:44:09;27.10;60.20
57719;DHT22;43561;50.090;18.522;2022-07-29T15:54:11;27.00;60.20
57719;DHT22;43561;50.090;18.522;2022-07-29T16:04:14;26.80;60.60
57719;DHT22;43561;50.090;18.522;2022-07-29T16:14:17;26.60;61.00
57719;DHT22;43561;50.090;18.522;2022-07-29T16:24:19;26.50;61.70
57719;DHT22;43561;50.090;18.522;2022-07-29T16:34:21;26.30;61.90
57719;DHT22;43561;50.090;18.522;2022-07-29T16:44:23;25.90;62.80
57719;DHT22;43561;50.090;18.522;2022-07-29T16:54:25;25.40;65.00
57719;DHT22;43561;50.090;18.522;2022-07-29T17:04:28;24.30;75.10
57719;DHT22;43561;50.090;18.522;2022-07-29T17:14:31;21.40;99.90
57719;DHT22;43561;50.090;18.522;2022-07-29T17:24:33;20.80;99.90
57719;DHT22;43561;50.090;18.522;2022-07-29T17:34:39;20.70;99.90
57719;DHT22;43561;50.090;18.522;2022-07-29T17:44:41;20.70;99.90
57719;DHT22;43561;50.090;18.522;2022-07-29T17:54:43;20.60;99.90
57719;DHT22;43561;50.090;18.522;2022-07-29T18:04:45;20.50;99.90
57719;DHT22;43561;50.090;18.522;2022-07-29T18:14:51;20.30;99.90
57719;DHT22;43561;50.090;18.522;2022-07-29T18:24:53;20.00;99.90
57719;DHT22;43561;50.090;18.522;2022-07-29T18:34:55;20.10;99.90
57719;DHT22;43561;50.090;18.522;2022-07-29T18:44:57;20.00;99.90
57719;DHT22;43561;50.090;18.522;2022-07-29T18:55:00;19.90;99.90
57719;DHT22;43561;50.090;18.522;2022-07-29T19:05:06;20.00;99.90
57719;DHT22;43561;50.090;18.522;2022-07-29T19:15:09;20.00;99.90
57719;DHT22;43561;50.090;18.522;2022-07-29T19:25:12;20.10;99.90
57719;DHT22;43561;50.090;18.522;2022-07-29T19:35:15;19.90;99.90
57719;DHT22;43561;50.090;18.522;2022-07-29T19:45:22;19.60;99.90
57719;DHT22;43561;50.090;18.522;2022-07-29T19:55:25;19.70;99.90
57719;DHT22;43561;50.090;18.522;2022-07-29T20:05:27;19.70;99.90
57719;DHT22;43561;50.090;18.522;2022-07-29T20:15:30;19.70;99.90
57719;DHT22;43561;50.090;18.522;2022-07-29T20:25:32;19.60;99.90
57719;DHT22;43561;50.090;18.522;2022-07-29T20:35:34;19.50;99.90
57719;DHT22;43561;50.090;18.522;2022-07-29T20:45:36;19.50;99.90
57719;DHT22;43561;50.090;18.522;2022-07-29T20:55:38;19.40;99.90
57719;DHT22;43561;50.090;18.522;2022-07-29T21:05:40;19.40;99.90
57719;DHT22;43561;50.090;18.522;2022-07-29T21:15:46;19.40;99.90
57719;DHT22;43561;50.090;18.522;2022-07-29T21:25:47;19.30;99.90
57719;DHT22;43561;50.090;18.522;2022-07-29T21:35:50;19.20;99.90
57719;DHT22;43561;50.090;18.522;2022-07-29T21:46:12;19.20;99.90
57719;DHT22;43561;50.090;18.522;2022-07-29T21:56:15;19.20;99.90
57719;DHT22;43561;50.090;18.522;2022-07-29T22:06:18;19.10;99.90
57719;DHT22;43561;50.090;18.522;2022-07-29T22:16:20;19.00;99.90
57719;DHT22;43561;50.090;18.522;2022-07-29T22:26:22;19.00;99.90
57719;DHT22;43561;50.090;18.522;2022-07-29T22:36:25;18.90;99.90
57719;DHT22;43561;50.090;18.522;2022-07-29T22:46:27;18.90;99.90
57719;DHT22;43561;50.090;18.522;2022-07-29T22:56:29;18.80;99.90
57719;DHT22;43561;50.090;18.522;2022-07-29T23:06:33;18.70;99.90
57719;DHT22;43561;50.090;18.522;2022-07-29T23:16:35;18.60;99.90
57719;DHT22;43561;50.090;18.522;2022-07-29T23:26:37;18.60;99.90
57719;DHT22;43561;50.090;18.522;2022-07-29T23:36:39;18.50;99.90
57719;DHT22;43561;50.090;18.522;2022-07-29T23:46:41;18.40;99.90
57719;DHT22;43561;50.090;18.522;2022-07-29T23:56:43;18.30;99.90
